sensor_id;sensor_type;location;lat;lon;timestamp;P1;durP1;ratioP1;P2;durP2;ratioP2
30048;SDS011;16879;50.852;15.602;2024-03-29T00:01:00;3.63;;;3.33;;
30048;SDS011;16879;50.852;15.602;2024-03-29T00:03:27;3.58;;;3.28;;
30048;SDS011;16879;50.852;15.602;2024-03-29T00:05:53;4.60;;;4.15;;
30048;SDS011;16879;50.852;15.602;2024-03-29T00:08:19;3.65;;;3.35;;
30048;SDS011;16879;50.852;15.602;2024-03-29T00:10:48;3.92;;;3.45;;
30048;SDS011;16879;50.852;15.602;2024-03-29T00:16:18;4.50;;;4.18;;
30048;SDS011;16879;50.852;15.602;2024-03-29T00:18:44;4.32;;;3.92;;
30048;SDS011;16879;50.852;15.602;2024-03-29T00:21:10;4.80;;;3.60;;
30048;SDS011;16879;50.852;15.602;2024-03-29T00:23:36;4.07;;;3.67;;
30048;SDS011;16879;50.852;15.602;2024-03-29T00:26:03;4.57;;;3.47;;
30048;SDS011;16879;50.852;15.602;2024-03-29T00:28:29;4.05;;;3.58;;
30048;SDS011;16879;50.852;15.602;2024-03-29T00:30:55;4.07;;;3.20;;
30048;SDS011;16879;50.852;15.602;2024-03-29T00:33:22;5.22;;;3.28;;
30048;SDS011;16879;50.852;15.602;2024-03-29T00:35:47;4.13;;;3.83;;
30048;SDS011;16879;50.852;15.602;2024-03-29T00:38:13;5.13;;;4.00;;
30048;SDS011;16879;50.852;15.602;2024-03-29T00:40:40;3.60;;;3.30;;
30048;SDS011;16879;50.852;15.602;2024-03-29T00:43:06;3.65;;;3.25;;
30048;SDS011;16879;50.852;15.602;2024-03-29T00:45:32;3.97;;;3.58;;
30048;SDS011;16879;50.852;15.602;2024-03-29T00:47:58;3.47;;;3.17;;
30048;SDS011;16879;50.852;15.602;2024-03-29T00:50:24;3.88;;;3.60;;
30048;SDS011;16879;50.852;15.602;2024-03-29T00:52:50;3.80;;;3.50;;
30048;SDS011;16879;50.852;15.602;2024-03-29T00:55:16;3.80;;;3.50;;
30048;SDS011;16879;50.852;15.602;2024-03-29T00:57:42;4.13;;;3.50;;
30048;SDS011;16879;50.852;15.602;2024-03-29T01:00:09;4.47;;;3.53;;
30048;SDS011;16879;50.852;15.602;2024-03-29T01:02:35;4.38;;;3.30;;
30048;SDS011;16879;50.852;15.602;2024-03-29T01:05:02;4.10;;;3.72;;
30048;SDS011;16879;50.852;15.602;2024-03-29T01:07:28;4.07;;;3.70;;
30048;SDS011;16879;50.852;15.602;2024-03-29T01:09:54;4.57;;;3.60;;
30048;SDS011;16879;50.852;15.602;2024-03-29T01:12:20;3.60;;;3.30;;
30048;SDS011;16879;50.852;15.602;2024-03-29T01:14:46;4.63;;;3.90;;
30048;SDS011;16879;50.852;15.602;2024-03-29T01:17:12;3.42;;;3.13;;
30048;SDS011;16879;50.852;15.602;2024-03-29T01:19:38;4.20;;;3.80;;
30048;SDS011;16879;50.852;15.602;2024-03-29T01:22:05;3.80;;;3.50;;
30048;SDS011;16879;50.852;15.602;2024-03-29T01:24:31;4.10;;;3.70;;
30048;SDS011;16879;50.852;15.602;2024-03-29T01:26:57;4.32;;;3.92;;
30048;SDS011;16879;50.852;15.602;2024-03-29T01:29:24;5.25;;;4.45;;
30048;SDS011;16879;50.852;15.602;2024-03-29T01:31:49;3.70;;;3.40;;
30048;SDS011;16879;50.852;15.602;2024-03-29T01:34:15;5.65;;;3.25;;
30048;SDS011;16879;50.852;15.602;2024-03-29T01:36:42;4.07;;;3.65;;
30048;SDS011;16879;50.852;15.602;2024-03-29T01:39:08;3.75;;;3.45;;
30048;SDS011;16879;50.852;15.602;2024-03-29T01:41:38;4.35;;;3.30;;
30048;SDS011;16879;50.852;15.602;2024-03-29T01:44:04;4.20;;;3.50;;
30048;SDS011;16879;50.852;15.602;2024-03-29T01:46:31;4.90;;;3.03;;
30048;SDS011;16879;50.852;15.602;2024-03-29T01:49:00;4.75;;;3.40;;
30048;SDS011;16879;50.852;15.602;2024-03-29T01:51:27;13.23;;;3.90;;
30048;SDS011;16879;50.852;15.602;2024-03-29T01:53:54;4.90;;;2.95;;
30048;SDS011;16879;50.852;15.602;2024-03-29T01:56:21;6.38;;;3.95;;
30048;SDS011;16879;50.852;15.602;2024-03-29T01:58:49;4.47;;;2.70;;
30048;SDS011;16879;50.852;15.602;2024-03-29T02:01:15;3.47;;;3.10;;
30048;SDS011;16879;50.852;15.602;2024-03-29T02:03:43;3.47;;;3.17;;
30048;SDS011;16879;50.852;15.602;2024-03-29T02:06:09;4.95;;;2.85;;
30048;SDS011;16879;50.852;15.602;2024-03-29T02:08:37;3.20;;;2.95;;
30048;SDS011;16879;50.852;15.602;2024-03-29T02:11:04;3.38;;;2.78;;
30048;SDS011;16879;50.852;15.602;2024-03-29T02:13:30;5.07;;;2.70;;
30048;SDS011;16879;50.852;15.602;2024-03-29T02:15:57;5.20;;;3.25;;
30048;SDS011;16879;50.852;15.602;2024-03-29T02:18:23;5.68;;;3.10;;
30048;SDS011;16879;50.852;15.602;2024-03-29T02:20:49;3.30;;;2.92;;
30048;SDS011;16879;50.852;15.602;2024-03-29T02:23:17;3.58;;;3.25;;
30048;SDS011;16879;50.852;15.602;2024-03-29T02:25:44;4.60;;;3.90;;
30048;SDS011;16879;50.852;15.602;2024-03-29T02:28:10;5.68;;;3.63;;
30048;SDS011;16879;50.852;15.602;2024-03-29T02:30:36;4.90;;;2.63;;
30048;SDS011;16879;50.852;15.602;2024-03-29T02:33:02;3.50;;;3.20;;
30048;SDS011;16879;50.852;15.602;2024-03-29T02:35:28;3.40;;;3.08;;
30048;SDS011;16879;50.852;15.602;2024-03-29T02:37:56;4.40;;;3.20;;
30048;SDS011;16879;50.852;15.602;2024-03-29T02:40:22;4.88;;;3.90;;
30048;SDS011;16879;50.852;15.602;2024-03-29T02:42:48;4.65;;;2.45;;
30048;SDS011;16879;50.852;15.602;2024-03-29T02:45:14;4.00;;;2.53;;
30048;SDS011;16879;50.852;15.602;2024-03-29T02:47:40;3.78;;;3.08;;
30048;SDS011;16879;50.852;15.602;2024-03-29T02:50:08;3.45;;;3.10;;
30048;SDS011;16879;50.852;15.602;2024-03-29T02:52:34;3.78;;;3.38;;
30048;SDS011;16879;50.852;15.602;2024-03-29T02:55:00;4.15;;;3.75;;
30048;SDS011;16879;50.852;15.602;2024-03-29T02:57:26;3.50;;;2.72;;
30048;SDS011;16879;50.852;15.602;2024-03-29T02:59:52;3.08;;;2.63;;
30048;SDS011;16879;50.852;15.602;2024-03-29T03:02:18;3.88;;;2.60;;
30048;SDS011;16879;50.852;15.602;2024-03-29T03:04:45;5.15;;;3.05;;
30048;SDS011;16879;50.852;15.602;2024-03-29T03:07:11;5.05;;;2.58;;
30048;SDS011;16879;50.852;15.602;2024-03-29T03:09:56;3.65;;;2.75;;
30048;SDS011;16879;50.852;15.602;2024-03-29T03:12:40;3.75;;;2.35;;
30048;SDS011;16879;50.852;15.602;2024-03-29T03:15:06;3.65;;;2.40;;
30048;SDS011;16879;50.852;15.602;2024-03-29T03:17:33;5.60;;;2.22;;
30048;SDS011;16879;50.852;15.602;2024-03-29T03:19:59;3.05;;;2.08;;
30048;SDS011;16879;50.852;15.602;2024-03-29T03:22:25;3.63;;;2.58;;
30048;SDS011;16879;50.852;15.602;2024-03-29T03:24:51;3.83;;;2.67;;
30048;SDS011;16879;50.852;15.602;2024-03-29T03:27:17;3.85;;;1.98;;
30048;SDS011;16879;50.852;15.602;2024-03-29T03:29:43;3.42;;;1.63;;
30048;SDS011;16879;50.852;15.602;2024-03-29T03:32:10;2.20;;;1.95;;
30048;SDS011;16879;50.852;15.602;2024-03-29T03:34:36;2.22;;;1.65;;
30048;SDS011;16879;50.852;15.602;2024-03-29T03:37:02;1.83;;;1.60;;
30048;SDS011;16879;50.852;15.602;2024-03-29T03:39:28;4.03;;;1.98;;
30048;SDS011;16879;50.852;15.602;2024-03-29T03:41:56;3.55;;;1.98;;
30048;SDS011;16879;50.852;15.602;2024-03-29T03:44:22;4.60;;;2.78;;
30048;SDS011;16879;50.852;15.602;2024-03-29T03:46:50;6.68;;;1.85;;
30048;SDS011;16879;50.852;15.602;2024-03-29T03:49:16;2.05;;;1.65;;
30048;SDS011;16879;50.852;15.602;2024-03-29T03:51:42;3.97;;;2.03;;
30048;SDS011;16879;50.852;15.602;2024-03-29T03:54:09;3.90;;;1.33;;
30048;SDS011;16879;50.852;15.602;2024-03-29T03:56:35;5.88;;;1.67;;
30048;SDS011;16879;50.852;15.602;2024-03-29T03:59:01;2.65;;;1.70;;
30048;SDS011;16879;50.852;15.602;2024-03-29T04:01:27;1.65;;;1.50;;
30048;SDS011;16879;50.852;15.602;2024-03-29T04:03:53;4.15;;;2.13;;
30048;SDS011;16879;50.852;15.602;2024-03-29T04:06:19;3.35;;;2.40;;
30048;SDS011;16879;50.852;15.602;2024-03-29T04:08:46;4.82;;;1.90;;
30048;SDS011;16879;50.852;15.602;2024-03-29T04:11:12;2.70;;;1.55;;
30048;SDS011;16879;50.852;15.602;2024-03-29T04:13:38;3.58;;;2.10;;
30048;SDS011;16879;50.852;15.602;2024-03-29T04:16:05;2.78;;;1.98;;
30048;SDS011;16879;50.852;15.602;2024-03-29T04:18:32;2.35;;;2.10;;
30048;SDS011;16879;50.852;15.602;2024-03-29T04:20:59;4.90;;;2.15;;
30048;SDS011;16879;50.852;15.602;2024-03-29T04:23:26;5.28;;;1.80;;
30048;SDS011;16879;50.852;15.602;2024-03-29T04:25:56;3.42;;;2.15;;
30048;SDS011;16879;50.852;15.602;2024-03-29T04:28:23;2.85;;;1.70;;
30048;SDS011;16879;50.852;15.602;2024-03-29T04:31:00;3.92;;;2.28;;
30048;SDS011;16879;50.852;15.602;2024-03-29T04:33:26;4.78;;;2.03;;
30048;SDS011;16879;50.852;15.602;2024-03-29T04:36:02;2.90;;;1.98;;
30048;SDS011;16879;50.852;15.602;2024-03-29T04:38:29;2.80;;;1.50;;
30048;SDS011;16879;50.852;15.602;2024-03-29T04:40:56;2.88;;;1.70;;
30048;SDS011;16879;50.852;15.602;2024-03-29T04:43:23;4.22;;;2.30;;
30048;SDS011;16879;50.852;15.602;2024-03-29T04:45:50;4.35;;;1.50;;
30048;SDS011;16879;50.852;15.602;2024-03-29T04:48:16;3.20;;;1.88;;
30048;SDS011;16879;50.852;15.602;2024-03-29T04:50:42;5.47;;;2.00;;
30048;SDS011;16879;50.852;15.602;2024-03-29T04:53:09;2.47;;;1.77;;
30048;SDS011;16879;50.852;15.602;2024-03-29T04:55:35;3.30;;;1.17;;
30048;SDS011;16879;50.852;15.602;2024-03-29T04:58:01;9.45;;;5.43;;
30048;SDS011;16879;50.852;15.602;2024-03-29T05:00:27;10.77;;;7.20;;
30048;SDS011;16879;50.852;15.602;2024-03-29T05:02:54;9.35;;;5.20;;
30048;SDS011;16879;50.852;15.602;2024-03-29T05:05:20;3.20;;;2.22;;
30048;SDS011;16879;50.852;15.602;2024-03-29T05:07:46;9.02;;;5.43;;
30048;SDS011;16879;50.852;15.602;2024-03-29T05:10:12;4.93;;;2.78;;
30048;SDS011;16879;50.852;15.602;2024-03-29T05:12:38;8.75;;;4.40;;
30048;SDS011;16879;50.852;15.602;2024-03-29T05:15:04;8.82;;;4.38;;
30048;SDS011;16879;50.852;15.602;2024-03-29T05:17:30;3.75;;;2.92;;
30048;SDS011;16879;50.852;15.602;2024-03-29T05:19:57;4.75;;;3.13;;
30048;SDS011;16879;50.852;15.602;2024-03-29T05:22:23;4.53;;;2.50;;
30048;SDS011;16879;50.852;15.602;2024-03-29T05:24:52;6.30;;;4.38;;
30048;SDS011;16879;50.852;15.602;2024-03-29T05:27:19;3.25;;;2.60;;
30048;SDS011;16879;50.852;15.602;2024-03-29T05:29:45;3.80;;;2.30;;
30048;SDS011;16879;50.852;15.602;2024-03-29T05:32:12;3.80;;;2.45;;
30048;SDS011;16879;50.852;15.602;2024-03-29T05:34:38;7.90;;;2.85;;
30048;SDS011;16879;50.852;15.602;2024-03-29T05:37:04;6.85;;;2.95;;
30048;SDS011;16879;50.852;15.602;2024-03-29T05:39:32;5.45;;;2.75;;
30048;SDS011;16879;50.852;15.602;2024-03-29T05:41:59;6.50;;;3.40;;
30048;SDS011;16879;50.852;15.602;2024-03-29T05:44:25;7.13;;;3.25;;
30048;SDS011;16879;50.852;15.602;2024-03-29T05:46:51;5.78;;;3.78;;
30048;SDS011;16879;50.852;15.602;2024-03-29T05:49:17;8.30;;;4.30;;
30048;SDS011;16879;50.852;15.602;2024-03-29T05:51:43;7.53;;;3.70;;
30048;SDS011;16879;50.852;15.602;2024-03-29T05:54:08;6.90;;;3.03;;
30048;SDS011;16879;50.852;15.602;2024-03-29T05:56:35;6.00;;;2.40;;
30048;SDS011;16879;50.852;15.602;2024-03-29T05:59:00;3.67;;;2.00;;
30048;SDS011;16879;50.852;15.602;2024-03-29T06:01:26;3.03;;;1.30;;
30048;SDS011;16879;50.852;15.602;2024-03-29T06:03:53;2.83;;;1.30;;
30048;SDS011;16879;50.852;15.602;2024-03-29T06:06:21;4.07;;;1.10;;
30048;SDS011;16879;50.852;15.602;2024-03-29T06:08:49;1.67;;;1.00;;
30048;SDS011;16879;50.852;15.602;2024-03-29T06:11:15;1.70;;;1.10;;
30048;SDS011;16879;50.852;15.602;2024-03-29T06:13:41;2.28;;;1.38;;
30048;SDS011;16879;50.852;15.602;2024-03-29T06:16:26;1.73;;;1.55;;
30048;SDS011;16879;50.852;15.602;2024-03-29T06:19:11;2.67;;;1.08;;
30048;SDS011;16879;50.852;15.602;2024-03-29T06:21:38;2.65;;;1.50;;
30048;SDS011;16879;50.852;15.602;2024-03-29T06:24:08;2.95;;;1.33;;
30048;SDS011;16879;50.852;15.602;2024-03-29T06:26:37;5.78;;;1.30;;
30048;SDS011;16879;50.852;15.602;2024-03-29T06:29:03;2.80;;;1.10;;
30048;SDS011;16879;50.852;15.602;2024-03-29T06:31:29;2.60;;;1.20;;
30048;SDS011;16879;50.852;15.602;2024-03-29T06:33:58;2.78;;;1.40;;
30048;SDS011;16879;50.852;15.602;2024-03-29T06:36:24;2.47;;;1.10;;
30048;SDS011;16879;50.852;15.602;2024-03-29T06:38:51;4.03;;;1.00;;
30048;SDS011;16879;50.852;15.602;2024-03-29T06:41:17;1.58;;;1.42;;
30048;SDS011;16879;50.852;15.602;2024-03-29T06:43:43;2.33;;;0.95;;
30048;SDS011;16879;50.852;15.602;2024-03-29T06:46:13;3.53;;;1.48;;
30048;SDS011;16879;50.852;15.602;2024-03-29T06:48:39;1.90;;;1.00;;
30048;SDS011;16879;50.852;15.602;2024-03-29T06:51:06;2.22;;;1.08;;
30048;SDS011;16879;50.852;15.602;2024-03-29T06:53:31;4.72;;;1.48;;
30048;SDS011;16879;50.852;15.602;2024-03-29T06:55:59;3.83;;;1.30;;
30048;SDS011;16879;50.852;15.602;2024-03-29T06:58:26;3.95;;;1.15;;
30048;SDS011;16879;50.852;15.602;2024-03-29T07:00:53;1.75;;;1.45;;
30048;SDS011;16879;50.852;15.602;2024-03-29T07:03:19;2.92;;;1.40;;
30048;SDS011;16879;50.852;15.602;2024-03-29T07:05:47;2.10;;;1.50;;
30048;SDS011;16879;50.852;15.602;2024-03-29T07:08:14;2.67;;;1.45;;
30048;SDS011;16879;50.852;15.602;2024-03-29T07:10:40;1.67;;;1.08;;
30048;SDS011;16879;50.852;15.602;2024-03-29T07:13:06;4.32;;;1.80;;
30048;SDS011;16879;50.852;15.602;2024-03-29T07:15:32;2.33;;;1.30;;
30048;SDS011;16879;50.852;15.602;2024-03-29T07:17:59;2.65;;;1.30;;
30048;SDS011;16879;50.852;15.602;2024-03-29T07:20:28;2.28;;;0.88;;
30048;SDS011;16879;50.852;15.602;2024-03-29T07:22:54;3.25;;;1.52;;
30048;SDS011;16879;50.852;15.602;2024-03-29T07:25:20;2.40;;;1.20;;
30048;SDS011;16879;50.852;15.602;2024-03-29T07:27:46;3.38;;;1.35;;
30048;SDS011;16879;50.852;15.602;2024-03-29T07:30:12;4.50;;;1.15;;
30048;SDS011;16879;50.852;15.602;2024-03-29T07:32:39;1.52;;;0.90;;
30048;SDS011;16879;50.852;15.602;2024-03-29T07:35:05;1.27;;;1.23;;
30048;SDS011;16879;50.852;15.602;2024-03-29T07:37:31;1.50;;;1.17;;
30048;SDS011;16879;50.852;15.602;2024-03-29T07:39:57;3.15;;;1.40;;
30048;SDS011;16879;50.852;15.602;2024-03-29T07:42:23;5.60;;;1.50;;
30048;SDS011;16879;50.852;15.602;2024-03-29T07:44:50;8.30;;;1.50;;
30048;SDS011;16879;50.852;15.602;2024-03-29T07:47:16;3.08;;;1.10;;
30048;SDS011;16879;50.852;15.602;2024-03-29T07:49:42;2.95;;;1.00;;
30048;SDS011;16879;50.852;15.602;2024-03-29T07:52:08;3.60;;;1.42;;
30048;SDS011;16879;50.852;15.602;2024-03-29T07:54:35;2.20;;;1.25;;
30048;SDS011;16879;50.852;15.602;2024-03-29T07:57:01;1.45;;;1.00;;
30048;SDS011;16879;50.852;15.602;2024-03-29T07:59:30;3.28;;;0.80;;
30048;SDS011;16879;50.852;15.602;2024-03-29T08:01:56;4.57;;;1.02;;
30048;SDS011;16879;50.852;15.602;2024-03-29T08:04:23;0.73;;;0.50;;
30048;SDS011;16879;50.852;15.602;2024-03-29T08:06:51;1.92;;;0.80;;
30048;SDS011;16879;50.852;15.602;2024-03-29T08:09:17;2.20;;;1.05;;
30048;SDS011;16879;50.852;15.602;2024-03-29T08:11:43;5.47;;;1.13;;
30048;SDS011;16879;50.852;15.602;2024-03-29T08:14:09;2.70;;;1.30;;
30048;SDS011;16879;50.852;15.602;2024-03-29T08:16:36;3.38;;;1.10;;
30048;SDS011;16879;50.852;15.602;2024-03-29T08:19:02;2.35;;;0.98;;
30048;SDS011;16879;50.852;15.602;2024-03-29T08:21:27;1.73;;;0.90;;
30048;SDS011;16879;50.852;15.602;2024-03-29T08:23:54;1.95;;;1.10;;
30048;SDS011;16879;50.852;15.602;2024-03-29T08:26:24;2.20;;;0.88;;
30048;SDS011;16879;50.852;15.602;2024-03-29T08:28:50;4.05;;;1.05;;
30048;SDS011;16879;50.852;15.602;2024-03-29T08:31:16;1.80;;;0.93;;
30048;SDS011;16879;50.852;15.602;2024-03-29T08:33:42;8.15;;;1.20;;
30048;SDS011;16879;50.852;15.602;2024-03-29T08:36:08;4.55;;;2.10;;
30048;SDS011;16879;50.852;15.602;2024-03-29T08:38:36;2.75;;;0.85;;
30048;SDS011;16879;50.852;15.602;2024-03-29T08:41:06;3.88;;;1.02;;
30048;SDS011;16879;50.852;15.602;2024-03-29T08:43:33;2.88;;;0.93;;
30048;SDS011;16879;50.852;15.602;2024-03-29T08:45:59;1.42;;;1.00;;
30048;SDS011;16879;50.852;15.602;2024-03-29T08:48:26;3.70;;;0.75;;
30048;SDS011;16879;50.852;15.602;2024-03-29T08:50:52;2.45;;;0.60;;
30048;SDS011;16879;50.852;15.602;2024-03-29T08:53:18;2.83;;;0.70;;
30048;SDS011;16879;50.852;15.602;2024-03-29T08:55:46;2.88;;;0.90;;
30048;SDS011;16879;50.852;15.602;2024-03-29T08:58:13;2.15;;;1.40;;
30048;SDS011;16879;50.852;15.602;2024-03-29T09:00:39;2.83;;;0.80;;
30048;SDS011;16879;50.852;15.602;2024-03-29T09:03:06;1.67;;;0.70;;
30048;SDS011;16879;50.852;15.602;2024-03-29T09:05:32;1.45;;;0.70;;
30048;SDS011;16879;50.852;15.602;2024-03-29T09:07:58;1.02;;;0.75;;
30048;SDS011;16879;50.852;15.602;2024-03-29T09:10:24;0.68;;;0.68;;
30048;SDS011;16879;50.852;15.602;2024-03-29T09:12:54;1.25;;;0.63;;
30048;SDS011;16879;50.852;15.602;2024-03-29T09:15:20;3.50;;;0.60;;
30048;SDS011;16879;50.852;15.602;2024-03-29T09:17:46;1.52;;;0.57;;
30048;SDS011;16879;50.852;15.602;2024-03-29T09:20:12;1.67;;;1.30;;
30048;SDS011;16879;50.852;15.602;2024-03-29T09:22:40;1.95;;;0.77;;
30048;SDS011;16879;50.852;15.602;2024-03-29T09:25:06;2.75;;;0.70;;
30048;SDS011;16879;50.852;15.602;2024-03-29T09:27:36;1.67;;;0.77;;
30048;SDS011;16879;50.852;15.602;2024-03-29T09:30:05;0.90;;;0.50;;
30048;SDS011;16879;50.852;15.602;2024-03-29T09:32:32;1.10;;;0.60;;
30048;SDS011;16879;50.852;15.602;2024-03-29T09:34:58;0.90;;;0.65;;
30048;SDS011;16879;50.852;15.602;2024-03-29T09:37:25;3.00;;;0.70;;
30048;SDS011;16879;50.852;15.602;2024-03-29T09:39:51;0.75;;;0.75;;
30048;SDS011;16879;50.852;15.602;2024-03-29T09:42:17;2.80;;;1.30;;
